Time;durP1;ratioP1;P1;durP2;ratioP2;P2;SDS_P1;SDS_P2;PMS_P1;PMS_P2;Temp;Humidity;BMP_temperature;BMP_pressure;BME280_temperature;BME280_humidity;BME280_pressure;Samples;Min_cycle;Max_cycle;Signal;HPM_P1;HPM_P2
2023/06/01 00:00:48;;;;;;;11.25;5.53;;;;;;;;;;4803414;29;20641;-88
2023/06/01 00:03:14;;;;;;;15.07;5.50;;;;;;;;;;4821521;29;20049;-87
2023/06/01 00:05:40;;;;;;;9.77;4.97;;;;;;;;;;4794115;29;20110;-87
2023/06/01 00:08:06;;;;;;;10.70;4.55;;;;;;;;;;4821833;29;20053;-87
2023/06/01 00:10:32;;;;;;;12.65;5.03;;;;;;;;;;4819442;29;20922;-87
2023/06/01 00:12:59;;;;;;;12.60;5.15;;;;;;;;;;4819787;29;20191;-87
2023/06/01 00:15:25;;;;;;;14.65;6.47;;;;;;;;;;4823842;29;20049;-87
2023/06/01 00:17:51;;;;;;;12.32;5.30;;;;;;;;;;4814465;29;20042;-88
2023/06/01 00:20:18;;;;;;;15.18;5.63;;;;;;;;;;4806064;29;20052;-88
2023/06/01 00:22:44;;;;;;;11.93;5.05;;;;;;;;;;4798792;29;20076;-86
2023/06/01 00:25:10;;;;;;;10.93;5.45;;;;;;;;;;4808604;29;20110;-87
2023/06/01 00:27:36;;;;;;;10.38;5.93;;;;;;;;;;4814553;29;20511;-87
2023/06/01 00:30:02;;;;;;;13.48;5.63;;;;;;;;;;4825055;29;20053;-87
2023/06/01 00:32:28;;;;;;;10.02;5.90;;;;;;;;;;4828597;29;20060;-87
2023/06/01 00:34:55;;;;;;;15.85;6.18;;;;;;;;;;4818657;29;20414;-87
2023/06/01 00:37:21;;;;;;;11.63;5.70;;;;;;;;;;4853649;29;20152;-87
2023/06/01 00:39:47;;;;;;;12.85;5.68;;;;;;;;;;4829611;29;20070;-87
2023/06/01 00:42:13;;;;;;;17.05;6.82;;;;;;;;;;4845347;29;20380;-87
2023/06/01 00:44:39;;;;;;;13.43;5.80;;;;;;;;;;4832025;29;20049;-87
2023/06/01 00:47:05;;;;;;;12.95;6.50;;;;;;;;;;4821162;29;20049;-87
2023/06/01 00:49:34;;;;;;;9.45;5.43;;;;;;;;;;4833833;29;20142;-87
2023/06/01 00:52:00;;;;;;;12.63;5.60;;;;;;;;;;4818041;29;20045;-87
2023/06/01 00:54:26;;;;;;;13.07;6.00;;;;;;;;;;4848987;29;20072;-87
2023/06/01 00:56:52;;;;;;;12.02;6.10;;;;;;;;;;4830830;29;22173;-86
2023/06/01 00:59:18;;;;;;;11.20;5.82;;;;;;;;;;4834781;29;20080;-87
2023/06/01 01:01:44;;;;;;;10.43;5.78;;;;;;;;;;4833250;29;20045;-87
2023/06/01 01:04:13;;;;;;;14.20;5.95;;;;;;;;;;4835800;29;20041;-87
2023/06/01 01:06:49;;;;;;;10.82;6.40;;;;;;;;;;4830769;29;20049;-87
2023/06/01 01:09:22;;;;;;;13.73;7.15;;;;;;;;;;4844068;29;20403;-87
2023/06/01 01:11:51;;;;;;;12.27;6.28;;;;;;;;;;4832630;29;20494;-87
2023/06/01 01:14:22;;;;;;;10.98;6.00;;;;;;;;;;4853423;29;20052;-87
2023/06/01 01:16:54;;;;;;;11.48;6.20;;;;;;;;;;4818973;29;20487;-87
2023/06/01 01:19:24;;;;;;;11.07;5.93;;;;;;;;;;4846387;29;20040;-87
2023/06/01 01:21:56;;;;;;;14.95;6.80;;;;;;;;;;4841987;29;20052;-87
2023/06/01 01:24:23;;;;;;;13.40;5.90;;;;;;;;;;4849980;29;20407;-87
2023/06/01 01:26:55;;;;;;;12.88;6.32;;;;;;;;;;4845580;29;20057;-87
2023/06/01 01:29:22;;;;;;;15.00;6.07;;;;;;;;;;4834759;29;20087;-87
2023/06/01 01:31:48;;;;;;;12.25;5.72;;;;;;;;;;4827426;29;20410;-87
2023/06/01 01:34:14;;;;;;;9.75;5.65;;;;;;;;;;4839063;29;20061;-87
2023/06/01 01:36:40;;;;;;;11.70;6.05;;;;;;;;;;4833889;29;20053;-88
2023/06/01 01:39:06;;;;;;;14.52;6.03;;;;;;;;;;4854988;29;20108;-87
2023/06/01 01:41:32;;;;;;;13.40;5.82;;;;;;;;;;4840123;29;20486;-87
2023/06/01 01:43:59;;;;;;;10.30;5.53;;;;;;;;;;4839237;29;20451;-87
2023/06/01 01:46:25;;;;;;;11.77;6.05;;;;;;;;;;4852696;29;20075;-87
2023/06/01 01:49:10;;;;;;;13.35;6.70;;;;;;;;;;4814566;29;20837;-87
2023/06/01 01:51:42;;;;;;;11.77;6.28;;;;;;;;;;4833401;29;20067;-87
2023/06/01 01:54:08;;;;;;;12.52;5.72;;;;;;;;;;4853866;29;20056;-87
2023/06/01 01:56:38;;;;;;;9.95;5.80;;;;;;;;;;4836917;29;20049;-87
2023/06/01 01:59:04;;;;;;;12.77;6.55;;;;;;;;;;4824053;29;20514;-87
2023/06/01 02:01:31;;;;;;;13.73;6.32;;;;;;;;;;4840930;29;20140;-87
2023/06/01 02:03:58;;;;;;;18.08;6.10;;;;;;;;;;4843752;29;20037;-87
2023/06/01 02:06:24;;;;;;;14.77;6.68;;;;;;;;;;4815472;29;20050;-87
2023/06/01 02:08:50;;;;;;;11.73;6.07;;;;;;;;;;4852677;29;20462;-87
2023/06/01 02:11:16;;;;;;;11.57;5.55;;;;;;;;;;4829071;29;20080;-87
2023/06/01 02:13:42;;;;;;;13.85;6.40;;;;;;;;;;4853552;29;20298;-87
2023/06/01 02:16:09;;;;;;;12.27;5.75;;;;;;;;;;4840804;29;20073;-87
2023/06/01 02:18:39;;;;;;;11.40;5.30;;;;;;;;;;4832366;29;20040;-86
2023/06/01 02:21:08;;;;;;;12.30;6.03;;;;;;;;;;4853155;29;20506;-87
2023/06/01 02:23:35;;;;;;;11.25;6.03;;;;;;;;;;4833219;29;20052;-87
2023/06/01 02:26:01;;;;;;;12.07;6.72;;;;;;;;;;4838413;29;20044;-87
2023/06/01 02:28:27;;;;;;;14.77;6.32;;;;;;;;;;4825575;29;20045;-87
2023/06/01 02:30:53;;;;;;;12.75;6.30;;;;;;;;;;4824024;29;20446;-87
2023/06/01 02:33:19;;;;;;;11.18;5.85;;;;;;;;;;4837714;29;23255;-87
2023/06/01 02:35:45;;;;;;;9.85;5.95;;;;;;;;;;4853962;29;20053;-87
2023/06/01 02:38:11;;;;;;;10.25;6.00;;;;;;;;;;4842066;29;20057;-87
2023/06/01 02:40:37;;;;;;;14.30;6.13;;;;;;;;;;4833558;29;20056;-88
2023/06/01 02:43:03;;;;;;;10.77;5.40;;;;;;;;;;4837135;29;20049;-87
2023/06/01 02:45:29;;;;;;;9.85;5.82;;;;;;;;;;4828465;29;20084;-87
2023/06/01 02:47:55;;;;;;;11.98;5.22;;;;;;;;;;4831657;29;20077;-87
2023/06/01 02:50:21;;;;;;;10.15;5.25;;;;;;;;;;4824341;29;20070;-87
2023/06/01 02:52:48;;;;;;;11.80;5.13;;;;;;;;;;4843054;29;20056;-87
2023/06/01 02:55:14;;;;;;;10.95;5.65;;;;;;;;;;4841484;29;20092;-87
2023/06/01 02:57:40;;;;;;;13.25;5.85;;;;;;;;;;4837575;29;20048;-87
2023/06/01 03:00:15;;;;;;;11.00;5.40;;;;;;;;;;4835548;29;20498;-87
2023/06/01 03:02:42;;;;;;;11.73;5.45;;;;;;;;;;4833104;29;20056;-87
2023/06/01 03:05:08;;;;;;;8.75;5.25;;;;;;;;;;4825823;29;20049;-87
2023/06/01 03:07:35;;;;;;;16.17;5.35;;;;;;;;;;4820338;29;20505;-88
2023/06/01 03:10:01;;;;;;;10.68;5.13;;;;;;;;;;4816885;29;20049;-87
2023/06/01 03:12:27;;;;;;;9.18;5.15;;;;;;;;;;4810651;29;20083;-87
2023/06/01 03:14:53;;;;;;;11.82;5.57;;;;;;;;;;4821075;29;20054;-87
2023/06/01 03:17:20;;;;;;;10.90;5.18;;;;;;;;;;4836632;29;20048;-87
2023/06/01 03:19:46;;;;;;;11.23;5.78;;;;;;;;;;4850626;29;20037;-88
2023/06/01 03:22:12;;;;;;;10.85;5.20;;;;;;;;;;4828321;29;20043;-88
2023/06/01 03:24:41;;;;;;;15.30;5.57;;;;;;;;;;4821807;29;20049;-88
2023/06/01 03:27:07;;;;;;;7.95;4.95;;;;;;;;;;4840699;29;20391;-88
2023/06/01 03:29:33;;;;;;;9.57;5.53;;;;;;;;;;4832646;29;20049;-88
2023/06/01 03:31:59;;;;;;;14.50;6.20;;;;;;;;;;4827166;29;20806;-88
2023/06/01 03:34:27;;;;;;;9.23;5.45;;;;;;;;;;4855192;29;20508;-88
2023/06/01 03:36:53;;;;;;;10.18;5.50;;;;;;;;;;4851300;29;20045;-87
2023/06/01 03:39:19;;;;;;;11.77;5.80;;;;;;;;;;4842443;29;20057;-88
2023/06/01 03:41:45;;;;;;;10.00;5.13;;;;;;;;;;4834287;29;20105;-88
2023/06/01 03:44:12;;;;;;;9.63;5.70;;;;;;;;;;4850563;29;20045;-88
2023/06/01 03:46:38;;;;;;;8.05;4.85;;;;;;;;;;4832598;29;20097;-88
2023/06/01 03:49:04;;;;;;;9.90;5.28;;;;;;;;;;4849499;29;20084;-88
2023/06/01 03:51:30;;;;;;;10.35;4.93;;;;;;;;;;4837848;29;20041;-87
2023/06/01 03:53:57;;;;;;;6.85;4.32;;;;;;;;;;4852571;29;20136;-87
2023/06/01 03:56:23;;;;;;;7.68;4.57;;;;;;;;;;4839217;29;20121;-88
2023/06/01 03:58:50;;;;;;;10.45;5.13;;;;;;;;;;4831525;29;20227;-88
2023/06/01 04:01:16;;;;;;;5.90;4.43;;;;;;;;;;4849425;29;20045;-88
2023/06/01 04:03:45;;;;;;;5.55;3.95;;;;;;;;;;4827211;29;20044;-88
2023/06/01 04:06:13;;;;;;;9.73;4.43;;;;;;;;;;4847397;29;20081;-88
2023/06/01 04:08:47;;;;;;;6.68;4.10;;;;;;;;;;4851176;29;21608;-88
2023/06/01 04:11:14;;;;;;;8.40;3.95;;;;;;;;;;4821343;29;20127;-87
2023/06/01 04:13:40;;;;;;;6.50;3.83;;;;;;;;;;4809853;29;20037;-87
2023/06/01 04:16:06;;;;;;;6.70;3.70;;;;;;;;;;4814277;29;20091;-87
2023/06/01 04:18:32;;;;;;;6.85;4.00;;;;;;;;;;4830067;29;20045;-88
2023/06/01 04:20:58;;;;;;;6.68;3.90;;;;;;;;;;4825612;29;20447;-88
2023/06/01 04:23:25;;;;;;;8.73;4.40;;;;;;;;;;4807053;29;20056;-87
2023/06/01 04:25:51;;;;;;;7.63;4.03;;;;;;;;;;4815951;29;20045;-87
2023/06/01 04:28:17;;;;;;;7.47;4.68;;;;;;;;;;4819669;29;20045;-87
2023/06/01 04:30:44;;;;;;;12.35;5.30;;;;;;;;;;4789711;29;20072;-87
2023/06/01 04:33:10;;;;;;;10.35;4.50;;;;;;;;;;4806172;29;20100;-87
2023/06/01 04:35:39;;;;;;;9.88;4.43;;;;;;;;;;4809735;29;20061;-87
2023/06/01 04:38:05;;;;;;;10.05;4.85;;;;;;;;;;4808079;29;20050;-87
2023/06/01 04:40:33;;;;;;;8.70;4.78;;;;;;;;;;4811611;29;20483;-88
2023/06/01 04:43:02;;;;;;;9.15;4.75;;;;;;;;;;4819120;29;20053;-88
2023/06/01 04:45:30;;;;;;;10.63;5.00;;;;;;;;;;4815716;29;20053;-88
2023/06/01 04:47:57;;;;;;;8.85;5.03;;;;;;;;;;4837588;29;20395;-88
2023/06/01 04:50:23;;;;;;;11.82;4.90;;;;;;;;;;4817550;29;20052;-87
2023/06/01 04:52:49;;;;;;;11.88;5.72;;;;;;;;;;4815049;29;20121;-87
2023/06/01 04:55:16;;;;;;;9.23;5.50;;;;;;;;;;4790164;29;20049;-87
2023/06/01 04:57:45;;;;;;;9.63;5.72;;;;;;;;;;4796333;29;20079;-88
2023/06/01 05:00:12;;;;;;;9.68;5.20;;;;;;;;;;4821988;29;20048;-87
2023/06/01 05:02:39;;;;;;;12.43;6.13;;;;;;;;;;4803931;29;20057;-87
2023/06/01 05:05:05;;;;;;;10.25;5.03;;;;;;;;;;4823521;29;20061;-88
2023/06/01 05:07:32;;;;;;;11.25;5.10;;;;;;;;;;4808319;29;20072;-87
2023/06/01 05:10:04;;;;;;;8.73;5.10;;;;;;;;;;4801374;29;20475;-87
2023/06/01 05:12:30;;;;;;;12.40;5.55;;;;;;;;;;4804708;29;20610;-87
2023/06/01 05:14:56;;;;;;;8.98;5.25;;;;;;;;;;4815175;29;20599;-87
2023/06/01 05:17:22;;;;;;;15.20;5.40;;;;;;;;;;4810585;29;20049;-87
2023/06/01 05:19:48;;;;;;;11.18;5.25;;;;;;;;;;4789341;29;20056;-88
2023/06/01 05:22:14;;;;;;;10.07;4.60;;;;;;;;;;4815209;29;20053;-87
2023/06/01 05:24:40;;;;;;;6.57;4.28;;;;;;;;;;4799453;29;20055;-88
2023/06/01 05:27:06;;;;;;;10.43;5.32;;;;;;;;;;4802364;29;20487;-87
2023/06/01 05:29:32;;;;;;;9.45;4.30;;;;;;;;;;4809586;29;20045;-88
2023/06/01 05:31:59;;;;;;;9.20;4.50;;;;;;;;;;4830103;29;20113;-87
2023/06/01 05:34:25;;;;;;;8.95;4.68;;;;;;;;;;4859634;29;20049;-87
2023/06/01 05:36:51;;;;;;;10.55;4.80;;;;;;;;;;4853679;29;20462;-87
2023/06/01 05:39:17;;;;;;;10.65;4.50;;;;;;;;;;4851316;29;20124;-87
2023/06/01 05:41:43;;;;;;;9.35;4.60;;;;;;;;;;4845669;29;20779;-87
2023/06/01 05:44:09;;;;;;;9.40;4.40;;;;;;;;;;4841565;29;20525;-87
2023/06/01 05:46:36;;;;;;;8.30;4.90;;;;;;;;;;4832412;29;20113;-87
2023/06/01 05:49:02;;;;;;;10.23;4.38;;;;;;;;;;4828682;29;20586;-87
2023/06/01 05:51:28;;;;;;;8.93;4.97;;;;;;;;;;4832773;29;20108;-87
2023/06/01 05:53:55;;;;;;;7.55;4.15;;;;;;;;;;4839011;29;20052;-88
2023/06/01 05:56:21;;;;;;;10.05;4.43;;;;;;;;;;4861772;29;20302;-87
2023/06/01 05:58:52;;;;;;;8.07;4.43;;;;;;;;;;4837054;29;20037;-87
2023/06/01 06:01:18;;;;;;;9.90;4.63;;;;;;;;;;4838816;29;20048;-88
2023/06/01 06:03:45;;;;;;;8.82;4.93;;;;;;;;;;4870689;29;20049;-87
2023/06/01 06:06:11;;;;;;;10.73;4.88;;;;;;;;;;4841810;29;20044;-87
2023/06/01 06:08:37;;;;;;;10.38;4.78;;;;;;;;;;4815946;29;20055;-87
2023/06/01 06:11:03;;;;;;;11.23;5.13;;;;;;;;;;4829675;29;20494;-87
2023/06/01 06:13:29;;;;;;;11.18;5.22;;;;;;;;;;4831489;29;20371;-87
2023/06/01 06:15:55;;;;;;;7.90;4.70;;;;;;;;;;4817580;29;20049;-87
2023/06/01 06:18:22;;;;;;;11.23;4.60;;;;;;;;;;4839328;29;20053;-88
2023/06/01 06:20:48;;;;;;;11.02;5.00;;;;;;;;;;4847942;29;20044;-88
2023/06/01 06:23:14;;;;;;;7.32;4.43;;;;;;;;;;4846687;29;20041;-88
2023/06/01 06:25:40;;;;;;;8.68;4.35;;;;;;;;;;4855463;29;20040;-88
2023/06/01 06:28:06;;;;;;;10.00;4.22;;;;;;;;;;4832978;29;20051;-88
2023/06/01 06:30:33;;;;;;;11.93;4.78;;;;;;;;;;4853216;29;20067;-88
2023/06/01 06:32:59;;;;;;;10.10;3.72;;;;;;;;;;4829543;29;20418;-88
2023/06/01 06:35:25;;;;;;;8.48;4.00;;;;;;;;;;4859782;29;20623;-88
2023/06/01 06:37:51;;;;;;;7.50;3.83;;;;;;;;;;4843125;29;20205;-88
2023/06/01 06:40:18;;;;;;;6.78;3.88;;;;;;;;;;4861642;29;20041;-88
2023/06/01 06:42:44;;;;;;;8.57;3.47;;;;;;;;;;4856660;29;20048;-88
2023/06/01 06:45:10;;;;;;;4.35;2.60;;;;;;;;;;4863622;29;20557;-88
2023/06/01 06:47:37;;;;;;;5.00;3.50;;;;;;;;;;4831444;29;20526;-88
2023/06/01 06:50:03;;;;;;;5.82;3.45;;;;;;;;;;4834642;29;20076;-88
2023/06/01 06:52:29;;;;;;;7.38;3.17;;;;;;;;;;4844565;29;20049;-89
2023/06/01 06:54:55;;;;;;;5.05;3.00;;;;;;;;;;4838397;29;20052;-87
2023/06/01 06:57:21;;;;;;;6.00;3.10;;;;;;;;;;4846019;29;20492;-87
2023/06/01 06:59:47;;;;;;;4.15;3.17;;;;;;;;;;4846569;29;20501;-87
2023/06/01 07:02:13;;;;;;;4.63;3.03;;;;;;;;;;4862528;29;20650;-88
2023/06/01 07:04:40;;;;;;;6.40;3.00;;;;;;;;;;4830095;29;20502;-88
2023/06/01 07:07:06;;;;;;;5.28;2.92;;;;;;;;;;4847429;29;20393;-88
2023/06/01 07:09:36;;;;;;;6.38;3.03;;;;;;;;;;4840016;29;20044;-89
2023/06/01 07:12:02;;;;;;;3.75;3.00;;;;;;;;;;4864779;29;20078;-89
2023/06/01 07:14:28;;;;;;;8.90;3.13;;;;;;;;;;4838289;29;20406;-88
2023/06/01 07:16:54;;;;;;;6.43;3.35;;;;;;;;;;4842401;29;23552;-88
2023/06/01 07:19:20;;;;;;;4.30;2.70;;;;;;;;;;4846427;29;20044;-88
2023/06/01 07:21:46;;;;;;;5.63;2.60;;;;;;;;;;4857724;29;20405;-88
2023/06/01 07:24:12;;;;;;;7.85;2.92;;;;;;;;;;4865211;29;20052;-88
2023/06/01 07:26:38;;;;;;;4.70;2.35;;;;;;;;;;4841989;29;20139;-88
2023/06/01 07:29:06;;;;;;;4.00;2.78;;;;;;;;;;4836726;29;20048;-88
2023/06/01 07:31:34;;;;;;;4.82;2.65;;;;;;;;;;4849606;29;20060;-88
2023/06/01 07:34:01;;;;;;;5.00;2.38;;;;;;;;;;4857120;29;20052;-88
2023/06/01 07:36:27;;;;;;;4.50;2.70;;;;;;;;;;4831417;29;20037;-88
2023/06/01 07:38:53;;;;;;;3.63;2.38;;;;;;;;;;4860637;29;20048;-88
2023/06/01 07:41:19;;;;;;;5.07;2.38;;;;;;;;;;4849271;29;20967;-88
2023/06/01 07:43:45;;;;;;;2.97;2.53;;;;;;;;;;4844719;29;20040;-88
2023/06/01 07:46:12;;;;;;;4.28;2.42;;;;;;;;;;4848570;29;20563;-88
2023/06/01 07:48:38;;;;;;;4.72;3.08;;;;;;;;;;4839136;29;20052;-88
2023/06/01 07:51:05;;;;;;;4.63;3.38;;;;;;;;;;4849071;29;20056;-88
2023/06/01 07:53:33;;;;;;;8.38;4.32;;;;;;;;;;4862245;29;20128;-88
2023/06/01 07:55:59;;;;;;;5.15;3.88;;;;;;;;;;4849477;29;20045;-88
2023/06/01 07:58:25;;;;;;;8.18;3.60;;;;;;;;;;4865392;29;20590;-88
2023/06/01 08:00:52;;;;;;;5.13;3.13;;;;;;;;;;4854775;29;20039;-88
2023/06/01 08:03:20;;;;;;;5.65;2.90;;;;;;;;;;4864849;29;20041;-88
2023/06/01 08:05:46;;;;;;;8.85;3.60;;;;;;;;;;4857739;29;20074;-88
2023/06/01 08:08:12;;;;;;;5.10;2.42;;;;;;;;;;4846576;29;20048;-88
2023/06/01 08:10:39;;;;;;;4.55;2.30;;;;;;;;;;4847200;29;21151;-88
2023/06/01 08:13:07;;;;;;;5.95;2.15;;;;;;;;;;4862285;29;20109;-88
2023/06/01 08:15:34;;;;;;;2.47;1.75;;;;;;;;;;4845207;29;20509;-89
2023/06/01 08:18:00;;;;;;;1.83;1.50;;;;;;;;;;4830528;29;20486;-88
2023/06/01 08:20:27;;;;;;;2.08;1.58;;;;;;;;;;4875546;29;20055;-88
2023/06/01 08:22:53;;;;;;;3.90;1.38;;;;;;;;;;4840001;29;20620;-88
2023/06/01 08:25:19;;;;;;;3.78;1.60;;;;;;;;;;4880036;29;20048;-88
2023/06/01 08:27:46;;;;;;;2.95;1.75;;;;;;;;;;4826315;29;20045;-88
2023/06/01 08:30:12;;;;;;;3.45;1.90;;;;;;;;;;4858017;29;22521;-88
2023/06/01 08:32:38;;;;;;;4.03;1.90;;;;;;;;;;4849454;29;20100;-89
2023/06/01 08:35:06;;;;;;;3.38;1.77;;;;;;;;;;4854838;29;20172;-88
2023/06/01 08:37:35;;;;;;;2.55;2.05;;;;;;;;;;4827059;29;21131;-88
2023/06/01 08:40:04;;;;;;;4.40;2.05;;;;;;;;;;4879609;29;20041;-88
2023/06/01 08:42:31;;;;;;;;;;;;;;;;;;4865638;29;20097;-88
2023/06/01 08:44:58;;;;;;;2.85;2.15;;;;;;;;;;4863942;29;19939;-88
2023/06/01 08:47:25;;;;;;;4.97;2.58;;;;;;;;;;4851087;29;20047;-88
2023/06/01 08:49:51;;;;;;;5.68;2.60;;;;;;;;;;4857725;29;20192;-89
2023/06/01 08:52:20;;;;;;;3.65;2.33;;;;;;;;;;4866996;29;20111;-88
2023/06/01 08:54:46;;;;;;;5.50;2.53;;;;;;;;;;4845391;29;20061;-88
2023/06/01 08:57:12;;;;;;;4.68;2.33;;;;;;;;;;4859145;29;20128;-88
2023/06/01 08:59:39;;;;;;;3.88;2.30;;;;;;;;;;4840723;29;20044;-88
2023/06/01 09:02:05;;;;;;;4.78;2.13;;;;;;;;;;4861512;29;20036;-89
2023/06/01 09:04:34;;;;;;;4.32;2.15;;;;;;;;;;4856901;29;20045;-88
2023/06/01 09:07:00;;;;;;;3.65;2.20;;;;;;;;;;4850599;29;20048;-88
2023/06/01 09:09:26;;;;;;;4.43;2.35;;;;;;;;;;4866256;29;20041;-89
2023/06/01 09:12:11;;;;;;;3.00;2.03;;;;;;;;;;4862580;29;21685;-89
2023/06/01 09:14:37;;;;;;;2.50;1.92;;;;;;;;;;4863662;29;20052;-89
2023/06/01 09:17:03;;;;;;;2.33;2.05;;;;;;;;;;4844820;29;20060;-88
2023/06/01 09:19:43;;;;;;;2.47;1.85;;;;;;;;;;4835185;29;20448;-88
2023/06/01 09:22:10;;;;;;;3.33;2.22;;;;;;;;;;4851028;29;20123;-88
2023/06/01 09:24:36;;;;;;;4.60;2.63;;;;;;;;;;4832091;29;20045;-88
2023/06/01 09:27:02;;;;;;;4.72;2.15;;;;;;;;;;4856725;29;20138;-88
2023/06/01 09:29:28;;;;;;;2.80;2.00;;;;;;;;;;4847143;29;20691;-88
2023/06/01 09:31:55;;;;;;;5.75;1.90;;;;;;;;;;4845153;29;20113;-88
2023/06/01 09:34:21;;;;;;;4.15;1.77;;;;;;;;;;4831857;29;20541;-88
2023/06/01 09:36:54;;;;;;;1.80;1.70;;;;;;;;;;4839037;29;20037;-88
2023/06/01 09:39:21;;;;;;;3.47;2.03;;;;;;;;;;4847522;29;20053;-88
2023/06/01 09:41:56;;;;;;;4.07;1.75;;;;;;;;;;4871259;29;20037;-89
2023/06/01 09:44:29;;;;;;;1.63;1.50;;;;;;;;;;4858772;29;20123;-88
2023/06/01 09:47:02;;;;;;;4.18;2.08;;;;;;;;;;4854661;29;20052;-88
2023/06/01 09:49:33;;;;;;;2.95;2.15;;;;;;;;;;4842873;29;20698;-88
2023/06/01 09:52:05;;;;;;;2.33;2.10;;;;;;;;;;4846188;29;20502;-88
2023/06/01 09:54:38;;;;;;;4.50;2.47;;;;;;;;;;4846836;29;20104;-89
2023/06/01 09:57:04;;;;;;;8.48;2.95;;;;;;;;;;4837352;29;20045;-88
2023/06/01 09:59:48;;;;;;;6.40;2.65;;;;;;;;;;4856994;29;20513;-88
2023/06/01 10:02:18;;;;;;;6.47;3.08;;;;;;;;;;4823321;29;20045;-88
2023/06/01 10:05:14;;;;;;;5.65;3.25;;;;;;;;;;4847859;29;20452;-88
2023/06/01 10:08:00;;;;;;;6.57;3.40;;;;;;;;;;4852323;29;20057;-88
2023/06/01 10:13:25;;;;;;;5.70;3.33;;;;;;;;;;4909511;23;20057;-89
2023/06/01 10:15:54;;;;;;;8.27;3.65;;;;;;;;;;4883076;29;20056;-89
2023/06/01 10:18:21;;;;;;;10.77;4.22;;;;;;;;;;4871744;29;20149;-88
2023/06/01 10:20:47;;;;;;;5.78;3.95;;;;;;;;;;4851001;29;20096;-89
2023/06/01 10:23:13;;;;;;;9.52;4.53;;;;;;;;;;4878837;29;20040;-88
2023/06/01 10:25:43;;;;;;;9.80;4.35;;;;;;;;;;4863992;29;20103;-89
2023/06/01 10:28:10;;;;;;;9.30;4.35;;;;;;;;;;4882435;29;20059;-89
2023/06/01 10:30:36;;;;;;;7.28;4.07;;;;;;;;;;4873130;29;20745;-89
2023/06/01 10:33:04;;;;;;;8.65;4.15;;;;;;;;;;4858363;29;20048;-88
2023/06/01 10:35:31;;;;;;;6.90;4.10;;;;;;;;;;4880657;29;20070;-89
2023/06/01 10:38:09;;;;;;;6.75;3.83;;;;;;;;;;4877628;29;20079;-89
2023/06/01 10:40:35;;;;;;;7.93;3.83;;;;;;;;;;4873054;29;20041;-89
2023/06/01 10:43:01;;;;;;;10.30;3.78;;;;;;;;;;4860231;29;20311;-89
2023/06/01 10:45:37;;;;;;;8.05;3.60;;;;;;;;;;4844682;29;20045;-89
2023/06/01 10:48:03;;;;;;;8.55;3.20;;;;;;;;;;4859791;29;20573;-89
2023/06/01 10:50:29;;;;;;;7.57;2.92;;;;;;;;;;4852207;29;20107;-89
2023/06/01 10:52:55;;;;;;;6.38;3.05;;;;;;;;;;4856577;29;20063;-89
2023/06/01 10:55:26;;;;;;;6.95;3.00;;;;;;;;;;4833882;29;20056;-88
2023/06/01 10:57:52;;;;;;;8.35;3.10;;;;;;;;;;4855308;29;20069;-88
2023/06/01 11:00:28;;;;;;;10.57;3.05;;;;;;;;;;4837050;29;20110;-90
2023/06/01 11:03:04;;;;;;;7.35;3.10;;;;;;;;;;4829410;29;23286;-89
2023/06/01 11:06:00;;;;;;;7.05;3.20;;;;;;;;;;4849842;29;20141;-89
2023/06/01 11:08:30;;;;;;;10.82;2.92;;;;;;;;;;4859897;29;20048;-89
2023/06/01 11:10:58;;;;;;;10.93;3.50;;;;;;;;;;4865809;29;20045;-89
2023/06/01 11:13:27;;;;;;;8.20;3.28;;;;;;;;;;4819456;29;20062;-89
2023/06/01 11:16:18;;;;;;;13.90;3.78;;;;;;;;;;4828631;29;20060;-90
2023/06/01 11:18:46;;;;;;;9.63;3.20;;;;;;;;;;4826341;29;20037;-89
2023/06/01 11:21:12;;;;;;;10.63;3.75;;;;;;;;;;4842453;29;20045;-89
2023/06/01 11:23:39;;;;;;;8.75;3.10;;;;;;;;;;4832604;29;20044;-89
2023/06/01 11:26:08;;;;;;;10.57;2.97;;;;;;;;;;4822172;29;20045;-90
2023/06/01 11:28:35;;;;;;;8.48;3.53;;;;;;;;;;4863183;29;20055;-90
2023/06/01 11:31:02;;;;;;;8.30;3.05;;;;;;;;;;4820113;29;20673;-90
2023/06/01 11:33:29;;;;;;;5.97;2.88;;;;;;;;;;4819429;29;20136;-90
2023/06/01 11:35:59;;;;;;;5.03;2.78;;;;;;;;;;4816509;29;20042;-90
2023/06/01 11:38:32;;;;;;;5.97;2.90;;;;;;;;;;4819856;29;20033;-90
2023/06/01 11:41:00;;;;;;;6.60;3.05;;;;;;;;;;4818297;29;20041;-89
2023/06/01 11:43:30;;;;;;;8.45;3.58;;;;;;;;;;4850668;29;20057;-89
2023/06/01 11:46:02;;;;;;;10.65;3.20;;;;;;;;;;4821504;29;20077;-89
2023/06/01 11:48:29;;;;;;;8.63;2.92;;;;;;;;;;4823653;29;20064;-89
2023/06/01 11:50:55;;;;;;;7.32;3.33;;;;;;;;;;4827909;29;20131;-90
2023/06/01 11:53:24;;;;;;;5.80;3.05;;;;;;;;;;4836795;29;20743;-90
2023/06/01 11:55:54;;;;;;;10.52;3.10;;;;;;;;;;4814375;29;20469;-90
2023/06/01 11:58:22;;;;;;;10.63;3.30;;;;;;;;;;4818158;29;20467;-90
2023/06/01 12:00:54;;;;;;;5.07;3.03;;;;;;;;;;4846850;29;20036;-88
2023/06/01 12:03:29;;;;;;;7.10;3.25;;;;;;;;;;4816416;29;20483;-89
2023/06/01 12:06:01;;;;;;;9.98;3.30;;;;;;;;;;4837091;29;20136;-89
2023/06/01 12:08:37;;;;;;;10.00;3.92;;;;;;;;;;4832955;29;20053;-90
2023/06/01 12:11:09;;;;;;;12.57;3.58;;;;;;;;;;4828338;29;20146;-88
2023/06/01 12:14:10;;;;;;;6.85;3.10;;;;;;;;;;4875973;29;20060;-89
2023/06/01 12:17:28;;;;;;;8.13;3.15;;;;;;;;;;4792871;29;20108;-89
2023/06/01 12:21:18;;;;;;;;;;;;;;;;;;;;;
2023/06/01 12:25:05;;;;;;;7.72;3.50;;;;;;;;;;4716815;30;21031;-89
2023/06/01 12:27:47;;;;;;;9.48;3.10;;;;;;;;;;4679643;30;20088;-90
2023/06/01 12:34:05;;;;;;;5.70;2.92;;;;;;;;;;4861268;24;20533;-89
2023/06/01 12:36:43;;;;;;;11.10;3.22;;;;;;;;;;4836012;29;20056;-88
2023/06/01 12:39:12;;;;;;;5.65;2.97;;;;;;;;;;4836043;29;20071;-88
2023/06/01 12:41:52;;;;;;;9.55;3.15;;;;;;;;;;4844583;29;20533;-88
2023/06/01 12:44:29;;;;;;;5.38;2.83;;;;;;;;;;4842134;29;20048;-88
2023/06/01 12:47:01;;;;;;;5.60;2.80;;;;;;;;;;4859112;29;20040;-88
2023/06/01 12:49:29;;;;;;;9.15;3.00;;;;;;;;;;4853459;29;20629;-88
2023/06/01 12:52:01;;;;;;;7.40;2.95;;;;;;;;;;4831679;29;20165;-88
2023/06/01 12:54:27;;;;;;;7.47;2.95;;;;;;;;;;4840038;29;20052;-88
2023/06/01 12:56:59;;;;;;;5.85;2.65;;;;;;;;;;4823424;29;20064;-88
2023/06/01 12:59:25;;;;;;;8.30;2.65;;;;;;;;;;4828101;29;20056;-89
2023/06/01 13:02:35;;;;;;;7.43;3.03;;;;;;;;;;4838644;29;20048;-89
2023/06/01 13:05:15;;;;;;;6.38;2.58;;;;;;;;;;4772122;29;20053;-89
2023/06/01 13:07:45;;;;;;;6.57;2.80;;;;;;;;;;4813545;29;20504;-88
2023/06/01 13:10:13;;;;;;;5.93;3.22;;;;;;;;;;4832973;29;20076;-89
2023/06/01 13:12:42;;;;;;;6.80;2.78;;;;;;;;;;4844838;29;20048;-88
2023/06/01 13:18:19;;;;;;;7.57;2.80;;;;;;;;;;4850421;29;20576;-88
2023/06/01 13:21:03;;;;;;;9.63;3.40;;;;;;;;;;4842134;29;20109;-87
2023/06/01 13:23:38;;;;;;;8.07;3.22;;;;;;;;;;4849607;29;20051;-88
2023/06/01 13:26:12;;;;;;;8.68;3.50;;;;;;;;;;4844028;29;20391;-89
2023/06/01 13:28:38;;;;;;;6.80;3.30;;;;;;;;;;4842294;29;20394;-88
2023/06/01 13:31:14;;;;;;;7.13;3.10;;;;;;;;;;4832437;29;20397;-88
2023/06/01 13:33:48;;;;;;;6.35;2.85;;;;;;;;;;4844877;29;20048;-88
2023/06/01 13:36:17;;;;;;;7.07;3.05;;;;;;;;;;4832773;29;20357;-87
2023/06/01 13:38:50;;;;;;;6.60;2.95;;;;;;;;;;4844848;29;20041;-88
2023/06/01 13:41:19;;;;;;;6.57;3.28;;;;;;;;;;4848450;29;20048;-88
2023/06/01 13:43:46;;;;;;;5.03;3.00;;;;;;;;;;4827590;29;20053;-87
2023/06/01 13:46:12;;;;;;;6.93;3.65;;;;;;;;;;4833949;29;20144;-88
2023/06/01 13:48:40;;;;;;;12.25;3.85;;;;;;;;;;4819044;29;20131;-88
2023/06/01 13:51:06;;;;;;;;;;;;;;;;;;4836767;29;20176;-87
2023/06/01 13:53:38;;;;;;;8.85;3.38;;;;;;;;;;4835462;29;20530;-88
2023/06/01 13:56:04;;;;;;;7.85;3.50;;;;;;;;;;4839362;29;20471;-88
2023/06/01 13:58:34;;;;;;;8.07;3.38;;;;;;;;;;4839231;29;20055;-88
2023/06/01 14:01:06;;;;;;;6.70;3.35;;;;;;;;;;4823552;29;20181;-88
2023/06/01 14:03:37;;;;;;;8.18;3.72;;;;;;;;;;4836282;29;20400;-88
2023/06/01 14:06:06;;;;;;;11.27;3.65;;;;;;;;;;4843697;29;20520;-88
2023/06/01 14:08:36;;;;;;;12.95;3.80;;;;;;;;;;4835255;29;20948;-87
2023/06/01 14:11:02;;;;;;;8.40;3.33;;;;;;;;;;4842851;29;20471;-88
2023/06/01 14:13:33;;;;;;;8.07;3.50;;;;;;;;;;4825352;29;20159;-88
2023/06/01 14:16:08;;;;;;;8.73;3.47;;;;;;;;;;4852359;29;20037;-88
2023/06/01 14:18:35;;;;;;;10.23;3.40;;;;;;;;;;4829459;29;20751;-89
2023/06/01 14:21:03;;;;;;;12.13;3.63;;;;;;;;;;4829103;29;20049;-88
2023/06/01 14:23:37;;;;;;;5.95;3.20;;;;;;;;;;4826354;29;20060;-87
2023/06/01 14:26:10;;;;;;;10.50;3.40;;;;;;;;;;4817531;29;20674;-90
2023/06/01 14:28:41;;;;;;;9.85;3.78;;;;;;;;;;4833419;29;20832;-88
2023/06/01 14:31:12;;;;;;;10.30;3.75;;;;;;;;;;4831201;29;20064;-88
2023/06/01 14:33:51;;;;;;;;;;;;;;;;;;;;;
2023/06/01 14:36:19;;;;;;;7.30;3.25;;;;;;;;;;4822597;29;20379;-88
2023/06/01 14:38:51;;;;;;;9.00;3.40;;;;;;;;;;4816006;29;20430;-88
2023/06/01 14:41:32;;;;;;;;;;;;;;;;;;;;;
2023/06/01 14:44:01;;;;;;;9.23;3.63;;;;;;;;;;4817368;29;20050;-87
2023/06/01 14:46:32;;;;;;;9.07;3.65;;;;;;;;;;4807296;29;20084;-88
2023/06/01 14:49:01;;;;;;;8.52;3.42;;;;;;;;;;4821921;29;20505;-88
2023/06/01 14:51:31;;;;;;;6.22;3.13;;;;;;;;;;4811391;29;20494;-88
2023/06/01 14:54:06;;;;;;;8.25;3.40;;;;;;;;;;4803423;29;20049;-88
2023/06/01 14:56:38;;;;;;;6.25;3.03;;;;;;;;;;4801686;29;20067;-89
2023/06/01 14:59:04;;;;;;;6.63;2.90;;;;;;;;;;4798850;29;20520;-87
2023/06/01 15:01:33;;;;;;;6.55;3.08;;;;;;;;;;4806888;29;20042;-87